• Join FlightAware (Why Join?)
  • Login
  • US Flag 
05:20AM EDT


 

Airport Tracker/Info


-or-


 

Live Flight TrackerFlight Track Log ✈ DAL151 ✈ 28-Jun-2013 ✈ KATL - SPIM / LIM

Flight Track Log - Related Links

Times and Time Zones

All times are in EDT time to prevent confusion due to time zone crossing. See the DAL151 flight status page for this flight to view local times or setup timezone preferences in your user account.

Time Position Orientation Groundspeed Altitude Reporting Facility
EDT Latitude Longitude Course Direction KTS MPH feet Rate Location/Type
05:18PM 33.6380 -84.4270 180° South 26 30  Level FlightAware
05:19PM 33.6370 -84.4270 180° South 27 31 300 Level FlightAware
05:19PM 33.6370 -84.4260 90° East 30 35 300 Level FlightAware
05:20PM 33.6370 -84.4210 90° East 18 21 360 Level FlightAware
05:20PM 33.6370 -84.4190 90° East 31 36 420 Level FlightAware
05:21PM 33.6370 -84.4170 90° East 17 20 420 Level FlightAware
05:21PM 33.6370 -84.4150 90° East 31 36 480 Level FlightAware
05:22PM 33.6370 -84.4120 90° East 15 17 540 Level FlightAware
05:22PM 33.6370 -84.4100 90° East 24 28 660 Level FlightAware
05:23PM 33.6360 -84.4090 140° Southeast 21 24 720 Level FlightAware
05:23PM 33.6350 -84.4090 180° South 22 25 900 Level FlightAware
05:24PM 33.6350 -84.4100 270° West 30 35 1,200 Level FlightAware
05:24PM 33.6350 -84.4320 270° West 160 184 1,920 Level FlightAware
05:25PM 33.6350 -84.4590 270° West 168 193 2,200 3,480 Climbing FlightAware
05:25PM 33.6350 -84.4850 270° West 168 193 3,300 1,440 Climbing FlightAware
05:26PM 33.6350 -84.5160 270° West 207 238 3,600 600 Climbing FlightAware
05:26PM 33.6360 -84.5380 273° West 230 265 3,800 1,380 Climbing FlightAware
05:27PM 33.6230 -84.5870 252° West 265 305 4,900 1,980 Climbing FlightAware
05:27PM 33.6050 -84.5990 209° Southwest 279 321 5,600 2,400 Climbing FlightAware
05:28PM 33.5540 -84.5950 176° South 303 349 7,100 2,280 Climbing FlightAware
05:28PM 33.5130 -84.5870 171° South 309 356 8,200 2,220 Climbing FlightAware
05:29PM 33.4740 -84.5780 169° South 315 362 9,200 1,620 Climbing FlightAware
05:29PM 33.4080 -84.5640 170° South 309 356 10,200 1,080 Climbing FlightAware
05:30PM 33.3590 -84.5520 168° South 336 387 10,700 1,560 Climbing FlightAware
05:31PM 33.2860 -84.5270 164° South 347 399 12,300 2,280 Climbing FlightAware
05:31PM 33.2170 -84.5280 181° South 325 374 14,200 1,620 Climbing FlightAware
05:32PM 33.1540 -84.5550 200° South 321 369 14,900 1,860 Climbing FlightAware
05:33PM 33.0770 -84.5920 202° Southwest 332 382 17,300 2,280 Climbing FlightAware
05:34PM 33.0280 -84.6150 201° Southwest 337 388 18,100 900 Climbing FlightAware
05:34PM 32.9700 -84.6440 203° Southwest 341 392 18,500 1,380 Climbing FlightAware
05:35PM 32.9040 -84.6770 203° Southwest 351 404 20,100 1,740 Climbing FlightAware
05:36PM 32.8320 -84.7140 203° Southwest 356 410 21,100 1,260 Climbing FlightAware
05:37PM 32.7650 -84.7480 203° Southwest 360 414 22,100 1,320 Climbing FlightAware
05:37PM 32.7100 -84.7760 203° Southwest 362 417 22,900 1,260 Climbing FlightAware
05:38PM 32.6440 -84.8100 203° Southwest 366 421 23,800 780 Climbing FlightAware
05:39PM 32.5540 -84.8570 204° Southwest 372 428 24,300 300 Climbing FlightAware
05:40PM 32.5060 -84.8810 203° Southwest 372 428 24,300  Level FlightAware
05:40PM 32.4440 -84.9120 203° Southwest 372 428 24,300  Level FlightAware
05:42PM 32.3440 -84.9620 203° Southwest 372 428 24,300  Level FlightAware
05:42PM 32.2960 -84.9870 204° Southwest 372 428 24,300 2,040 Level FlightAware
05:43PM 32.1094 -85.0956 204° Southwest 414 476 28,300 1,800 Climbing Atlanta Center
05:44PM 32.0025 -85.1483 203° Southwest 414 476 28,600 420 Climbing Atlanta Center
05:46PM 31.8464 -85.2356 205° Southwest 429 494 29,300 600 Climbing Jacksonville Center
05:47PM 31.7325 -85.3011 206° Southwest 448 516 30,100 600 Climbing Jacksonville Center
05:48PM 31.6183 -85.3664 206° Southwest 453 521 30,600 660 Climbing Jacksonville Center
05:49PM 31.5022 -85.4314 206° Southwest 458 527 31,500 1,140 Climbing Jacksonville Center
05:50PM 31.3903 -85.5014 208° Southwest 458 527 32,900 1,020 Climbing Jacksonville Center
05:51PM 31.2844 -85.5667 208° Southwest 446 513 33,600 540 Climbing Jacksonville Center
05:52PM 31.1644 -85.6069 196° South 441 507 34,100 300 Climbing Jacksonville Center
05:53PM 31.0464 -85.5669 164° South 427 491 34,200 180 Climbing Jacksonville Center
05:54PM 30.9461 -85.4722 141° Southeast 414 476 34,500 240 Climbing Jacksonville Center
05:55PM 30.8478 -85.3800 141° Southeast 437 503 34,800 360 Climbing Jacksonville Center
06:00PM 30.1940 -84.9890 141° Southeast 482 555 37,000 300 Climbing FlightAware
06:01PM 30.1170 -84.9370 150° Southeast 482 555 37,000  Level FlightAware
06:02PM 30.0130 -84.8690 150° Southeast 482 555 37,000  Level FlightAware
06:03PM 29.9540 -84.8300 150° Southeast 482 555 37,000  Level FlightAware
06:03PM 29.8770 -84.7790 150° Southeast 482 555 37,000  Level FlightAware
06:04PM 29.7600 -84.7080 152° Southeast 37,000  Level FlightAware
06:05PM 29.6630 -84.6450 151° Southeast 481 554 37,000  Level FlightAware
06:06PM 29.5250 -84.5570 151° Southeast 485 558 37,000  Level FlightAware
06:07PM 29.4390 -84.5020 151° Southeast 484 557 37,000  Level FlightAware
06:07PM 29.3690 -84.4560 150° Southeast 484 557 37,000  Level FlightAware
06:08PM 29.2620 -84.3880 151° Southeast 481 554 37,000  Level FlightAware
06:09PM 29.1570 -84.3210 151° Southeast 481 554 37,000  Level FlightAware
06:10PM 29.0220 -84.2370 151° Southeast 482 555 37,000  Level FlightAware
06:11PM 28.9080 -84.1630 150° Southeast 484 557 37,000  Level FlightAware
06:12PM 28.8160 -84.1060 152° Southeast 483 556 37,000  Level FlightAware
06:13PM 28.7340 -84.0550 151° Southeast 480 552 37,000  Level FlightAware
06:13PM 28.6470 -84.0000 151° Southeast 480 552 37,000  Level FlightAware
06:14PM 28.5650 -83.9490 151° Southeast 480 552 37,000  Level FlightAware
06:15PM 28.4844 -83.8975 151° Southeast 486 559 37,000  Level Miami Center
06:16PM 28.3631 -83.8214 151° Southeast 486 559 37,000  Level Miami Center
06:17PM 28.2456 -83.7506 152° Southeast 486 559 37,000  Level Miami Center
06:18PM 28.1283 -83.6753 150° Southeast 486 559 37,000  Level Miami Center
06:19PM 28.0086 -83.6047 153° Southeast 481 554 37,000  Level Miami Center
06:24PM 27.3500 -83.1960 153° Southeast 490 564 37,000  Level FlightAware
06:28PM 26.9630 -82.9560 151° Southeast 490 564 37,000  Level FlightAware
06:29PM 26.9000 -82.9170 151° Southeast 490 564 37,000  Level FlightAware
06:30PM 26.7270 -82.8180 153° Southeast 475 547 37,000  Level FlightAware
06:30PM 26.6360 -82.7640 152° Southeast 480 552 37,000  Level FlightAware
06:31PM 26.5560 -82.7160 152° Southeast 480 552 37,000  Level FlightAware
06:32PM 26.4730 -82.6660 152° Southeast 478 550 37,000  Level FlightAware
06:32PM 26.3950 -82.6190 152° Southeast 480 552 37,000  Level FlightAware
06:34PM 26.2440 -82.5290 152° Southeast 489 563 37,000  Level FlightAware
06:34PM 26.1820 -82.4920 152° Southeast 490 564 37,000  Level FlightAware
06:35PM 26.0890 -82.4360 152° Southeast 489 563 37,000  Level FlightAware
06:36PM 25.9130 -82.3320 152° Southeast 492 566 37,000  Level FlightAware
06:37PM 25.8130 -82.2710 151° Southeast 492 566 37,000  Level FlightAware
06:38PM 25.7170 -82.2160 153° Southeast 479 551 37,000  Level FlightAware
06:39PM 25.6320 -82.1660 152° Southeast 477 549 37,000  Level FlightAware
06:39PM 25.5580 -82.1220 152° Southeast 476 548 37,000  Level FlightAware
06:40PM 25.4480 -82.0570 152° Southeast 477 549 37,000  Level FlightAware
06:41PM 25.3730 -82.0120 152° Southeast 474 545 37,000  Level FlightAware
06:42PM 25.2710 -81.9530 152° Southeast 479 551 37,000  Level FlightAware
06:42PM 25.1920 -81.9070 152° Southeast 479 551 37,000  Level FlightAware
06:43PM 25.1110 -81.8590 152° Southeast 488 562 37,000  Level FlightAware
06:44PM 25.0200 -81.8060 152° Southeast 478 550 37,000  Level FlightAware
06:49PM 24.3720 -81.6390 167° South 470 541 37,000  Level FlightAware
06:50PM 24.2480 -81.6320 177° South 481 554 37,000  Level FlightAware
06:50PM 24.1610 -81.6280 178° South 480 552 37,000  Level FlightAware
06:51PM 24.0680 -81.6230 177° South 467 537 37,000  Level FlightAware
06:52PM 23.9720 -81.6180 177° South 467 537 37,000  Level FlightAware
06:53PM 23.8940 -81.6140 177° South 470 541 37,000  Level FlightAware
06:53PM 23.7730 -81.6080 177° South 470 541 37,000  Level FlightAware
06:54PM 23.6990 -81.6040 177° South 465 535 37,000  Level FlightAware
06:55PM 23.6010 -81.5990 177° South 470 541 37,000  Level FlightAware
06:56PM 23.4570 -81.5920 177° South 463 533 37,000 240 Level FlightAware
06:57PM 23.3390 -81.5860 177° South 470 541 37,500 720 Climbing FlightAware
06:58PM 23.2070 -81.5790 177° South 454 522 38,400 540 Climbing FlightAware
06:58PM 23.1410 -81.5750 177° South 454 522 38,400  Level FlightAware
06:59PM 23.0540 -81.5710 178° South 454 522 38,400  Level FlightAware
07:00PM 22.9900 -81.5670 177° South 454 522 38,400  Level FlightAware
07:01PM 22.9040 -81.5620 177° South 454 522 38,400  Level FlightAware
07:01PM 22.8600 -81.5590 176° South 454 522 38,400  Level FlightAware
07:02PM 22.7330 -81.5520 177° South 454 522 38,400  Level FlightAware
07:04PM 22.5620 -81.5430 177° South 454 522 38,400  Level FlightAware
07:05PM 22.4490 -81.5360 177° South 454 522 38,400  Level FlightAware
07:05PM 22.3850 -81.5330 178° South 454 522 38,400  Level FlightAware
07:06PM 22.3000 -81.5280 177° South 454 522 38,400  Level FlightAware
07:07PM 22.2360 -81.5240 177° South 454 522 38,400  Level FlightAware
07:08PM 22.1500 -81.5190 177° South 454 522 38,400  Level FlightAware
07:10PM 21.9031 -81.4913 174° South  Level FlightAware Approximate
07:11PM 21.7743 -81.4769 174° South  Level FlightAware Approximate
07:12PM 21.6454 -81.4625 174° South  Level FlightAware Approximate
07:13PM 21.5166 -81.4481 174° South  Level FlightAware Approximate
07:14PM 21.3878 -81.4338 174° South  Level FlightAware Approximate
07:15PM 21.2589 -81.4195 174° South  Level FlightAware Approximate
07:16PM 21.1301 -81.4052 174° South  Level FlightAware Approximate
07:17PM 20.9966 -81.3987 179° South  Level FlightAware Approximate
07:18PM 20.8671 -81.3967 179° South  Level FlightAware Approximate
07:19PM 20.7376 -81.3947 179° South  Level FlightAware Approximate
07:20PM 20.6081 -81.3927 179° South  Level FlightAware Approximate
07:21PM 20.4786 -81.3907 179° South  Level FlightAware Approximate
07:22PM 20.3491 -81.3887 179° South  Level FlightAware Approximate
07:23PM 20.2196 -81.3867 179° South  Level FlightAware Approximate
07:24PM 20.0904 -81.3847 179° South  Level FlightAware Approximate
07:25PM 19.9613 -81.3824 179° South  Level FlightAware Approximate
07:26PM 19.8321 -81.3794 179° South  Level FlightAware Approximate
07:27PM 19.7029 -81.3764 179° South  Level FlightAware Approximate
07:28PM 19.5738 -81.3734 179° South  Level FlightAware Approximate
07:29PM 19.4447 -81.3704 179° South  Level FlightAware Approximate
07:30PM 19.3155 -81.3674 179° South  Level FlightAware Approximate
07:31PM 19.1878 -81.3492 170° South  Level FlightAware Approximate
07:32PM 19.0605 -81.3259 170° South  Level FlightAware Approximate
07:33PM 18.9332 -81.3026 170° South  Level FlightAware Approximate
07:34PM 18.8059 -81.2794 170° South  Level FlightAware Approximate
07:35PM 18.6786 -81.2562 170° South  Level FlightAware Approximate
07:36PM 18.5513 -81.2330 170° South  Level FlightAware Approximate
07:37PM 18.4240 -81.2099 170° South  Level FlightAware Approximate
07:38PM 18.2967 -81.1868 170° South  Level FlightAware Approximate
07:39PM 18.1694 -81.1637 170° South  Level FlightAware Approximate
07:40PM 18.0421 -81.1407 170° South  Level FlightAware Approximate
07:41PM 17.9148 -81.1177 170° South  Level FlightAware Approximate
07:42PM 17.7875 -81.0948 170° South  Level FlightAware Approximate
07:43PM 17.6602 -81.0719 170° South  Level FlightAware Approximate
07:44PM 17.5328 -81.0490 170° South  Level FlightAware Approximate
07:45PM 17.4055 -81.0261 170° South  Level FlightAware Approximate
07:46PM 17.2782 -81.0033 170° South  Level FlightAware Approximate
07:47PM 17.1509 -80.9805 170° South  Level FlightAware Approximate
07:48PM 17.0235 -80.9577 170° South  Level FlightAware Approximate
07:49PM 16.8962 -80.9350 170° South  Level FlightAware Approximate
07:50PM 16.7689 -80.9123 170° South  Level FlightAware Approximate
07:51PM 16.6415 -80.8896 170° South  Level FlightAware Approximate
07:52PM 16.5142 -80.8670 170° South  Level FlightAware Approximate
07:53PM 16.3868 -80.8444 170° South  Level FlightAware Approximate
07:54PM 16.2595 -80.8218 170° South  Level FlightAware Approximate
07:55PM 16.1321 -80.7992 170° South  Level FlightAware Approximate
07:56PM 16.0048 -80.7767 170° South  Level FlightAware Approximate
07:57PM 15.8774 -80.7542 170° South  Level FlightAware Approximate
07:58PM 15.7501 -80.7318 170° South  Level FlightAware Approximate
07:59PM 15.6227 -80.7093 170° South  Level FlightAware Approximate
08:00PM 15.4954 -80.6869 170° South  Level FlightAware Approximate
08:01PM 15.3680 -80.6645 170° South  Level FlightAware Approximate
08:02PM 15.2406 -80.6422 170° South  Level FlightAware Approximate
08:03PM 15.1133 -80.6198 170° South  Level FlightAware Approximate
08:04PM 14.9859 -80.5975 170° South  Level FlightAware Approximate
08:05PM 14.8585 -80.5753 170° South  Level FlightAware Approximate
08:06PM 14.7311 -80.5531 170° South  Level FlightAware Approximate
08:07PM 14.6038 -80.5310 170° South  Level FlightAware Approximate
08:08PM 14.4764 -80.5088 170° South  Level FlightAware Approximate
08:09PM 14.3490 -80.4867 170° South  Level FlightAware Approximate
08:10PM 14.2216 -80.4647 171° South  Level FlightAware Approximate
08:11PM 14.0941 -80.4429 171° South  Level FlightAware Approximate
08:12PM 13.9667 -80.4212 171° South  Level FlightAware Approximate
08:13PM 13.8393 -80.3995 171° South  Level FlightAware Approximate
08:14PM 13.7118 -80.3778 171° South  Level FlightAware Approximate
08:15PM 13.5844 -80.3561 171° South  Level FlightAware Approximate
08:16PM 13.4569 -80.3345 171° South  Level FlightAware Approximate
08:17PM 13.3294 -80.3133 171° South  Level FlightAware Approximate
08:18PM 13.2018 -80.2922 171° South  Level FlightAware Approximate
08:19PM 13.0743 -80.2711 171° South  Level FlightAware Approximate
08:20PM 12.9468 -80.2501 171° South  Level FlightAware Approximate
08:21PM 12.8193 -80.2290 171° South  Level FlightAware Approximate
08:22PM 12.6917 -80.2080 171° South  Level FlightAware Approximate
08:23PM 12.5642 -80.1870 171° South  Level FlightAware Approximate
08:24PM 12.4366 -80.1660 171° South  Level FlightAware Approximate
08:25PM 12.3091 -80.1450 171° South  Level FlightAware Approximate
08:26PM 12.1816 -80.1241 171° South  Level FlightAware Approximate
08:27PM 12.0540 -80.1032 171° South  Level FlightAware Approximate
08:28PM 11.9264 -80.0823 171° South  Level FlightAware Approximate
08:29PM 11.7989 -80.0614 171° South  Level FlightAware Approximate
08:30PM 11.6713 -80.0405 171° South  Level FlightAware Approximate
08:31PM 11.5438 -80.0197 171° South  Level FlightAware Approximate
08:32PM 11.4163 -79.9988 171° South  Level FlightAware Approximate
08:33PM 11.2887 -79.9780 171° South  Level FlightAware Approximate
08:34PM 11.1611 -79.9572 171° South  Level FlightAware Approximate
08:35PM 11.0337 -79.9357 170° South  Level FlightAware Approximate
08:36PM 10.9063 -79.9137 170° South  Level FlightAware Approximate
08:37PM 10.7790 -79.8917 170° South  Level FlightAware Approximate
08:38PM 10.6516 -79.8698 170° South  Level FlightAware Approximate
08:39PM 10.5242 -79.8479 170° South  Level FlightAware Approximate
08:40PM 10.3969 -79.8260 170° South  Level FlightAware Approximate
08:41PM 10.2695 -79.8041 170° South  Level FlightAware Approximate
08:42PM 10.1421 -79.7822 170° South  Level FlightAware Approximate
08:43PM 10.0148 -79.7604 170° South  Level FlightAware Approximate
08:44PM 9.8874 -79.7385 170° South  Level FlightAware Approximate
08:45PM 9.7600 -79.7167 170° South  Level FlightAware Approximate
08:46PM 9.6326 -79.6949 170° South  Level FlightAware Approximate
08:47PM 9.5052 -79.6731 170° South  Level FlightAware Approximate
08:48PM 9.3779 -79.6514 170° South  Level FlightAware Approximate
08:49PM 9.2505 -79.6296 170° South  Level FlightAware Approximate
08:50PM 9.1231 -79.6079 170° South  Level FlightAware Approximate
08:51PM 8.9957 -79.5862 170° South  Level FlightAware Approximate
08:52PM 8.8684 -79.5645 170° South  Level FlightAware Approximate
08:53PM 8.7404 -79.5516 182° South  Level FlightAware Approximate
08:54PM 8.6113 -79.5563 182° South  Level FlightAware Approximate
08:55PM 8.4822 -79.5610 182° South  Level FlightAware Approximate
08:56PM 8.3531 -79.5657 182° South  Level FlightAware Approximate
08:57PM 8.2240 -79.5704 182° South  Level FlightAware Approximate
08:58PM 8.0949 -79.5750 182° South  Level FlightAware Approximate
08:59PM 7.9658 -79.5797 182° South  Level FlightAware Approximate
09:00PM 7.8367 -79.5839 181° South  Level FlightAware Approximate
09:01PM 7.7076 -79.5863 181° South  Level FlightAware Approximate
09:02PM 7.5784 -79.5887 181° South  Level FlightAware Approximate
09:03PM 7.4493 -79.5911 181° South  Level FlightAware Approximate
09:04PM 7.3201 -79.5935 181° South  Level FlightAware Approximate
09:05PM 7.1910 -79.5958 181° South  Level FlightAware Approximate
09:06PM 7.0618 -79.5982 181° South  Level FlightAware Approximate
09:07PM 6.9327 -79.6013 182° South  Level FlightAware Approximate
09:08PM 6.8036 -79.6061 182° South  Level FlightAware Approximate
09:09PM 6.6745 -79.6108 182° South  Level FlightAware Approximate
09:10PM 6.5454 -79.6156 182° South  Level FlightAware Approximate
09:11PM 6.4163 -79.6204 182° South  Level FlightAware Approximate
09:12PM 6.2872 -79.6252 182° South  Level FlightAware Approximate
09:13PM 6.1581 -79.6300 182° South  Level FlightAware Approximate
09:14PM 6.0290 -79.6348 182° South  Level FlightAware Approximate
09:15PM 5.9000 -79.6396 182° South  Level FlightAware Approximate
09:16PM 5.7709 -79.6443 182° South  Level FlightAware Approximate
09:17PM 5.6418 -79.6491 182° South  Level FlightAware Approximate
09:18PM 5.5127 -79.6539 182° South  Level FlightAware Approximate
09:19PM 5.3836 -79.6587 182° South  Level FlightAware Approximate
09:20PM 5.2545 -79.6634 182° South  Level FlightAware Approximate
09:21PM 5.1254 -79.6683 182° South  Level FlightAware Approximate
09:22PM 4.9964 -79.6735 182° South  Level FlightAware Approximate
09:23PM 4.8673 -79.6787 182° South  Level FlightAware Approximate
09:24PM 4.7382 -79.6839 182° South  Level FlightAware Approximate
09:25PM 4.6091 -79.6890 182° South  Level FlightAware Approximate
09:26PM 4.4801 -79.6942 182° South  Level FlightAware Approximate
09:27PM 4.3510 -79.6994 182° South  Level FlightAware Approximate
09:28PM 4.2219 -79.7046 182° South  Level FlightAware Approximate
09:29PM 4.0929 -79.7097 182° South  Level FlightAware Approximate
09:30PM 3.9638 -79.7149 182° South  Level FlightAware Approximate
09:31PM 3.8347 -79.7201 182° South  Level FlightAware Approximate
09:32PM 3.7057 -79.7252 182° South  Level FlightAware Approximate
09:33PM 3.5766 -79.7304 182° South  Level FlightAware Approximate
09:34PM 3.4475 -79.7356 182° South  Level FlightAware Approximate
09:35PM 3.3184 -79.7407 182° South  Level FlightAware Approximate
09:36PM 3.1894 -79.7459 182° South  Level FlightAware Approximate
09:37PM 3.0603 -79.7511 182° South  Level FlightAware Approximate
09:38PM 2.9312 -79.7562 182° South  Level FlightAware Approximate
09:39PM 2.8022 -79.7614 182° South  Level FlightAware Approximate
09:40PM 2.6731 -79.7665 182° South  Level FlightAware Approximate
09:41PM 2.5440 -79.7717 182° South  Level FlightAware Approximate
09:42PM 2.4150 -79.7768 182° South  Level FlightAware Approximate
09:43PM 2.2859 -79.7820 182° South  Level FlightAware Approximate
09:44PM 2.1568 -79.7871 182° South  Level FlightAware Approximate
09:45PM 2.0278 -79.7923 182° South  Level FlightAware Approximate
09:46PM 1.8987 -79.7974 182° South  Level FlightAware Approximate
09:47PM 1.7696 -79.8026 182° South  Level FlightAware Approximate
09:48PM 1.6405 -79.8077 182° South  Level FlightAware Approximate
09:49PM 1.5115 -79.8129 182° South  Level FlightAware Approximate
09:50PM 1.3829 -79.8100 169° South  Level FlightAware Approximate
09:51PM 1.2562 -79.7848 169° South  Level FlightAware Approximate
09:52PM 1.1295 -79.7596 169° South  Level FlightAware Approximate
09:53PM 1.0028 -79.7344 169° South  Level FlightAware Approximate
09:54PM 0.8761 -79.7093 169° South  Level FlightAware Approximate
09:55PM 0.7494 -79.6841 169° South  Level FlightAware Approximate
09:56PM 0.6227 -79.6589 169° South  Level FlightAware Approximate
09:57PM 0.4960 -79.6338 169° South  Level FlightAware Approximate
09:58PM 0.3693 -79.6086 169° South  Level FlightAware Approximate
09:58PM -0.7920 -79.8540 169° South 500 575 39,000  Level FlightAware
09:59PM 0.2426 -79.5834 169° South  Level FlightAware Approximate
09:59PM -0.8980 -79.8550 181° South 501 577 39,000  Level FlightAware
09:59PM -1.0010 -79.8560 181° South 503 579 39,000  Level FlightAware
09:59PM -1.0250 -79.8560 180° South 503 579 39,000  Level FlightAware
10:01PM -1.2360 -79.8580 166° South 503 579 39,000  Level FlightAware
10:02PM -1.2843 -79.7924 166° South  Level Estimated
10:04PM -1.5096 -79.7895 166° South  Level Estimated
10:04PM -1.5540 -79.8620 166° South 502 578 39,000  Level FlightAware
10:04PM -1.6940 -79.8630 180° South 501 577 39,000  Level FlightAware
10:05PM -1.7860 -79.8640 181° South 500 575 39,000  Level FlightAware
10:06PM -1.8990 -79.8650 181° South 498 573 39,000  Level FlightAware
10:06PM -2.0030 -79.8660 181° South 496 571 39,000  Level FlightAware
10:07PM -2.0810 -79.8660 180° South 495 570 39,000  Level FlightAware
10:08PM -2.1840 -79.8600 177° South 496 571 39,000  Level FlightAware
10:09PM -2.2920 -79.8460 173° South 498 573 39,000  Level FlightAware
10:09PM -2.3830 -79.8350 173° South 496 571 39,000  Level FlightAware
10:10PM -2.4740 -79.8230 172° South 495 570 39,000  Level FlightAware
10:11PM -2.5980 -79.8070 173° South 493 567 39,000  Level FlightAware
10:12PM -2.7020 -79.7940 173° South 493 567 39,000  Level FlightAware
10:12PM -2.8010 -79.7820 173° South 493 567 39,000  Level FlightAware
10:13PM -2.8830 -79.7710 172° South 493 567 39,000  Level FlightAware
10:14PM -2.9850 -79.7580 173° South 494 568 39,000  Level FlightAware
10:14PM -3.0750 -79.7470 173° South 495 570 39,000  Level FlightAware
10:16PM -3.3610 -79.7110 164° South 493 567 39,000  Level FlightAware
10:17PM -3.3529 -79.6666 164° South  Level Estimated
10:17PM -3.4610 -79.6980 173° South 494 568 39,000  Level FlightAware
10:18PM -3.5380 -79.6890 173° South 494 568 39,000  Level FlightAware
10:19PM -3.6350 -79.6770 173° South 494 568 39,000  Level FlightAware
10:19PM -3.7060 -79.6680 173° South 494 568 39,000  Level FlightAware
10:20PM -3.8390 -79.6520 173° South 494 568 39,000  Level FlightAware
10:21PM -3.9530 -79.6380 173° South 494 568 39,000  Level FlightAware
10:22PM -4.0260 -79.6290 173° South 494 568 39,000  Level FlightAware
10:23PM -4.0990 -79.6200 173° South 494 568 39,000  Level FlightAware
10:23PM -4.1940 -79.6080 173° South 494 568 39,000  Level FlightAware
10:24PM -4.2650 -79.5990 173° South 494 568 39,000  Level FlightAware
10:25PM -4.3770 -79.5850 173° South 494 568 39,000  Level FlightAware
10:26PM -4.4700 -79.5740 173° South 494 568 39,000  Level FlightAware
10:26PM -4.5390 -79.5660 173° South 494 568 39,000 -360 Level FlightAware
10:29PM -4.7959 -79.4832 162° South  Level Estimated
10:30PM -4.9196 -79.4433 162° South  Level Estimated
10:31PM -5.0433 -79.4035 162° South  Level Estimated
10:32PM -5.1669 -79.3636 162° South  Level Estimated
10:33PM -5.2906 -79.3236 162° South  Level Estimated
10:34PM -5.4142 -79.2837 162° South  Level Estimated
10:35PM -5.5378 -79.2438 162° South  Level Estimated
10:36PM -5.6615 -79.2038 162° South  Level Estimated
10:37PM -5.7851 -79.1638 162° South  Level Estimated
10:38PM -5.9088 -79.1238 162° South  Level Estimated
10:39PM -6.0324 -79.0838 162° South  Level Estimated
10:40PM -6.1560 -79.0438 162° South  Level Estimated
10:41PM -6.2797 -79.0037 162° South  Level Estimated
10:42PM -6.4033 -78.9637 162° South  Level Estimated
10:43PM -6.5269 -78.9236 162° South  Level Estimated
10:44PM -6.6505 -78.8835 162° South  Level Estimated
10:45PM -6.7741 -78.8433 162° South  Level Estimated
10:46PM -6.8978 -78.8032 162° South  Level Estimated
10:47PM -7.0214 -78.7630 162° South  Level Estimated
10:48PM -7.1450 -78.7228 162° South  Level Estimated
10:49PM -7.2686 -78.6826 162° South  Level Estimated
10:50PM -7.3922 -78.6424 162° South  Level Estimated
10:51PM -7.5158 -78.6021 162° South  Level Estimated
10:52PM -7.6394 -78.5618 162° South  Level Estimated
10:53PM -7.7629 -78.5215 162° South  Level Estimated
10:54PM -7.8865 -78.4812 162° South  Level Estimated
10:55PM -8.0101 -78.4408 162° South  Level Estimated
10:56PM -8.1337 -78.4004 162° South  Level Estimated
10:57PM -8.2573 -78.3600 162° South  Level Estimated
10:58PM -8.3808 -78.3196 162° South  Level Estimated
10:59PM -8.5044 -78.2792 162° South  Level Estimated
11:00PM -8.6279 -78.2387 162° South  Level Estimated
11:01PM -8.7515 -78.1982 162° South  Level Estimated
11:02PM -8.8751 -78.1576 162° South  Level Estimated
11:03PM -8.9986 -78.1171 162° South  Level Estimated
11:04PM -9.1222 -78.0765 162° South  Level Estimated
11:05PM -9.2457 -78.0359 162° South  Level Estimated
11:06PM -9.3692 -77.9952 162° South  Level Estimated
11:07PM -9.4928 -77.9545 162° South  Level Estimated
11:08PM -9.6163 -77.9138 162° South  Level Estimated
11:09PM -9.7398 -77.8731 162° South  Level Estimated
11:10PM -9.8633 -77.8323 162° South  Level Estimated
11:11PM -9.9868 -77.7915 162° South  Level Estimated
11:12PM -10.1103 -77.7507 162° South  Level Estimated
11:13PM -10.2338 -77.7098 162° South  Level Estimated
11:14PM -10.3573 -77.6690 162° South  Level Estimated
11:15PM -10.4808 -77.6280 162° South  Level Estimated
11:15PM -10.9960 -77.6720 162° South 346 398 22,600  Level FlightAware
11:16PM -10.6043 -77.5871 162° South  Level Estimated
11:16PM -11.0560 -77.7060 209° Southwest 321 369 21,900  Level FlightAware
11:16PM -11.1050 -77.7340 209° Southwest 318 366 21,800 -120 Descending FlightAware
11:17PM -11.1440 -77.7560 209° Southwest 318 366 21,800  Level FlightAware
11:18PM -11.1970 -77.7860 209° Southwest 318 366 21,800  Level FlightAware
11:18PM -11.2370 -77.8090 209° Southwest 318 366 21,800  Level FlightAware
11:19PM -11.2900 -77.8390 209° Southwest 318 366 21,800 -2,820 Level FlightAware
11:22PM -11.5062 -77.6255 136° Southeast  Level Estimated
11:22PM -11.4500 -77.5040 136° Southeast 256 295 10,600  Level FlightAware
11:23PM -11.5995 -77.5333 136° Southeast  Level Estimated
11:23PM -11.4710 -77.4780 129° Southeast 258 297 9,600  Level FlightAware
11:23PM -11.4880 -77.4570 130° Southeast 258 297 9,600  Level FlightAware
11:24PM -11.4950 -77.4470 126° Southeast 258 297 9,600  Level FlightAware
11:24PM -11.5180 -77.4190 130° Southeast 258 297 9,600  Level FlightAware
11:25PM -11.5330 -77.4000 129° Southeast 258 297 9,600  Level FlightAware
11:27PM -11.7566 -77.2695 150° Southeast  Level Estimated
11:28PM -11.8694 -77.2036 150° Southeast  Level Estimated
11:29PM -11.9821 -77.1376 150° Southeast  Level Estimated
11:30PM -12.0219 -77.1143 150° Southeast  Level Estimated
11:31PM -12.0219 -77.1143 44° Northeast  Level Estimated
11:32PM -12.0219 -77.1143 44° Northeast  Level Estimated
11:33PM -12.0219 -77.1143 44° Northeast  Level Estimated
11:34PM -12.0219 -77.1143 44° Northeast  Level Estimated
11:35PM -12.0219 -77.1143 44° Northeast  Level Estimated